createdAt,value
2022-11-19T00:02:02.170Z,19.20
2022-11-19T00:04:30.259Z,18.50
2022-11-19T00:06:58.553Z,19.10
2022-11-19T00:09:26.615Z,16.40
2022-11-19T00:12:12.717Z,16.60
2022-11-19T00:14:40.723Z,18.50
2022-11-19T00:17:15.217Z,18.10
2022-11-19T00:22:11.184Z,18.40
2022-11-19T00:24:39.735Z,17.50
2022-11-19T00:27:07.766Z,18.00
2022-11-19T00:29:36.224Z,17.70
2022-11-19T00:32:04.893Z,16.80
2022-11-19T00:34:32.814Z,16.70
2022-11-19T00:37:00.736Z,15.00
2022-11-19T00:39:28.707Z,15.80
2022-11-19T00:41:56.622Z,15.60
2022-11-19T00:44:24.510Z,17.20
2022-11-19T00:46:52.734Z,16.80
2022-11-19T00:49:20.887Z,15.90
2022-11-19T00:51:48.977Z,15.50
2022-11-19T00:54:16.993Z,15.50
2022-11-19T00:56:44.939Z,16.80
2022-11-19T00:59:12.917Z,17.60
2022-11-19T01:01:40.909Z,18.60
2022-11-19T01:04:08.911Z,17.30
2022-11-19T01:06:42.232Z,17.50
2022-11-19T01:09:10.208Z,16.30
2022-11-19T01:11:38.450Z,18.30
2022-11-19T01:14:07.577Z,17.00
2022-11-19T01:16:38.811Z,17.50
2022-11-19T01:19:09.766Z,16.40
2022-11-19T01:21:37.791Z,17.80
2022-11-19T01:24:06.146Z,17.20
2022-11-19T01:26:34.074Z,18.10
2022-11-19T01:29:02.943Z,17.20
2022-11-19T01:31:31.155Z,17.30
2022-11-19T01:33:59.793Z,16.10
2022-11-19T01:36:29.852Z,16.40
2022-11-19T01:38:57.905Z,17.60
2022-11-19T01:41:32.979Z,18.10
2022-11-19T01:44:03.528Z,18.50
2022-11-19T01:46:35.174Z,17.90
2022-11-19T01:49:03.046Z,17.00
2022-11-19T01:51:41.183Z,18.90
2022-11-19T01:54:18.924Z,19.20
2022-11-19T01:56:47.302Z,17.40
2022-11-19T01:59:18.480Z,16.50
2022-11-19T02:01:47.415Z,16.40
2022-11-19T02:04:17.801Z,17.40
2022-11-19T02:06:45.892Z,19.70
2022-11-19T02:09:13.991Z,19.20
2022-11-19T02:12:10.680Z,17.60
2022-11-19T02:14:38.566Z,17.80
2022-11-19T02:17:20.864Z,18.80
2022-11-19T02:20:13.470Z,20.00
2022-11-19T02:22:47.346Z,20.40
2022-11-19T02:25:22.478Z,18.70
2022-11-19T02:28:02.406Z,20.50
2022-11-19T02:30:39.193Z,22.10
2022-11-19T02:33:15.770Z,21.80
2022-11-19T02:35:50.215Z,23.40
2022-11-19T02:38:38.198Z,21.40
2022-11-19T02:41:34.869Z,23.20
2022-11-19T02:44:48.646Z,24.60
2022-11-19T02:47:21.075Z,21.60
2022-11-19T02:49:54.408Z,21.90
2022-11-19T02:52:22.410Z,24.50
2022-11-19T02:54:50.285Z,24.90
2022-11-19T02:57:18.234Z,23.20
2022-11-19T03:00:15.414Z,23.30
2022-11-19T03:03:15.169Z,22.50
2022-11-19T03:05:48.572Z,23.00
2022-11-19T03:08:17.029Z,22.70
2022-11-19T03:11:11.290Z,22.40
2022-11-19T03:14:11.288Z,21.90
2022-11-19T03:16:42.852Z,22.00
2022-11-19T03:19:35.478Z,22.40
2022-11-19T03:22:29.572Z,22.60
2022-11-19T03:25:10.173Z,23.90
2022-11-19T03:27:42.304Z,21.90
2022-11-19T03:30:11.823Z,21.70
2022-11-19T03:32:54.810Z,23.40
2022-11-19T03:35:30.862Z,25.40
2022-11-19T03:38:03.743Z,25.40
2022-11-19T03:40:33.814Z,24.20
2022-11-19T03:43:06.723Z,22.60
2022-11-19T03:45:42.111Z,22.40
2022-11-19T03:48:13.599Z,26.30
2022-11-19T03:51:28.832Z,25.90
2022-11-19T03:53:56.781Z,24.00
2022-11-19T03:56:26.709Z,22.70
2022-11-19T03:58:54.629Z,23.70
2022-11-19T04:01:22.887Z,24.10
2022-11-19T04:04:09.362Z,26.30
2022-11-19T04:06:37.315Z,26.60
2022-11-19T04:09:05.254Z,25.00
2022-11-19T04:11:33.191Z,27.30
2022-11-19T04:14:01.131Z,27.30
2022-11-19T04:16:28.989Z,30.70
2022-11-19T04:18:56.908Z,30.00
2022-11-19T04:21:24.809Z,29.70
2022-11-19T04:23:52.743Z,29.30
2022-11-19T04:26:20.681Z,27.30
2022-11-19T04:28:48.596Z,26.10
2022-11-19T04:31:18.033Z,29.50
2022-11-19T04:34:37.034Z,28.20
2022-11-19T04:37:04.908Z,29.10
2022-11-19T04:39:32.955Z,32.80
2022-11-19T04:42:00.931Z,28.90
2022-11-19T04:44:29.137Z,27.00
2022-11-19T04:46:57.049Z,29.50
2022-11-19T04:49:25.059Z,29.90
2022-11-19T04:51:53.057Z,31.30
2022-11-19T04:54:21.035Z,29.50
2022-11-19T04:56:48.968Z,28.70
2022-11-19T04:59:18.325Z,22.90
2022-11-19T05:01:46.540Z,27.20
2022-11-19T05:04:14.497Z,31.30
2022-11-19T05:06:42.391Z,33.40
2022-11-19T05:09:10.342Z,31.90
2022-11-19T05:11:38.224Z,29.50
2022-11-19T05:14:06.175Z,31.00
2022-11-19T05:16:34.156Z,30.00
2022-11-19T05:19:01.999Z,31.60
2022-11-19T05:21:29.968Z,31.30
2022-11-19T05:23:57.914Z,29.30
2022-11-19T05:30:35.474Z,28.50
2022-11-19T05:33:03.497Z,32.30
2022-11-19T05:35:31.621Z,33.20
2022-11-19T05:37:59.547Z,30.10
2022-11-19T05:40:27.577Z,30.20
2022-11-19T05:42:55.623Z,29.90
2022-11-19T05:45:23.589Z,30.80
2022-11-19T05:47:55.052Z,30.70
2022-11-19T05:50:23.029Z,31.50
2022-11-19T05:52:51.334Z,32.40
2022-11-19T05:55:20.849Z,32.20
2022-11-19T05:57:48.904Z,33.00
2022-11-19T06:00:19.708Z,30.90
2022-11-19T06:02:47.725Z,30.70
2022-11-19T06:05:15.883Z,29.70
2022-11-19T06:07:43.808Z,31.00
2022-11-19T06:10:11.922Z,34.90
2022-11-19T06:12:45.215Z,35.20
2022-11-19T06:15:14.835Z,36.00
2022-11-19T06:17:42.956Z,35.20
2022-11-19T06:20:11.604Z,33.50
2022-11-19T06:22:40.062Z,33.60
2022-11-19T06:25:08.402Z,35.60
2022-11-19T06:27:36.398Z,38.10
2022-11-19T06:30:05.507Z,36.30
2022-11-19T06:32:33.429Z,35.90
2022-11-19T06:35:01.395Z,33.50
2022-11-19T06:37:29.341Z,28.30
2022-11-19T06:39:57.256Z,29.40
2022-11-19T06:42:38.252Z,28.60
2022-11-19T06:45:11.935Z,29.30
2022-11-19T06:47:41.416Z,30.80
2022-11-19T06:50:10.716Z,29.10
2022-11-19T06:52:38.776Z,29.30
2022-11-19T06:55:07.056Z,30.20
2022-11-19T06:57:34.980Z,29.90
2022-11-19T07:00:04.104Z,31.60
2022-11-19T07:02:32.110Z,29.00
2022-11-19T07:05:00.046Z,27.80
2022-11-19T07:07:28.020Z,30.00
2022-11-19T07:09:55.907Z,28.80
2022-11-19T07:12:23.790Z,32.40
2022-11-19T07:14:51.692Z,30.80
2022-11-19T07:17:19.581Z,29.80
2022-11-19T07:19:47.594Z,30.80
2022-11-19T07:22:15.501Z,34.50
2022-11-19T07:29:07.327Z,37.80
2022-11-19T07:31:35.386Z,39.30
2022-11-19T07:34:07.026Z,41.60
2022-11-19T07:36:35.919Z,39.90
2022-11-19T07:39:05.199Z,38.50
2022-11-19T07:41:52.099Z,37.60
2022-11-19T07:44:20.142Z,39.00
2022-11-19T07:46:48.192Z,36.90
2022-11-19T07:49:16.198Z,37.70
2022-11-19T07:51:44.805Z,35.00
2022-11-19T07:54:14.289Z,37.10
2022-11-19T07:56:42.578Z,24.20
2022-11-19T07:59:11.111Z,21.20
2022-11-19T08:01:39.263Z,23.30
2022-11-19T08:04:07.453Z,22.40
2022-11-19T08:06:35.397Z,21.30
2022-11-19T08:09:04.710Z,22.70
2022-11-19T08:11:32.802Z,23.40
2022-11-19T08:14:04.120Z,19.90
2022-11-19T08:16:51.974Z,21.10
2022-11-19T08:19:20.429Z,21.40
2022-11-19T08:22:14.728Z,23.50
2022-11-19T08:24:42.664Z,26.20
2022-11-19T08:27:10.661Z,22.70
2022-11-19T08:29:38.658Z,22.20
2022-11-19T08:32:06.572Z,23.80
2022-11-19T08:34:34.511Z,23.40
2022-11-19T08:37:02.492Z,21.50
2022-11-19T08:39:30.835Z,22.00
2022-11-19T08:42:17.013Z,28.90
2022-11-19T08:44:44.913Z,28.60
2022-11-19T08:47:12.844Z,29.90
2022-11-19T08:49:40.767Z,30.00
2022-11-19T08:52:08.855Z,30.30
2022-11-19T08:54:36.881Z,25.90
2022-11-19T08:57:05.463Z,23.10
2022-11-19T08:59:33.404Z,25.70
2022-11-19T09:02:01.293Z,26.20
2022-11-19T09:04:29.234Z,24.40
2022-11-19T09:06:57.796Z,26.50
2022-11-19T09:09:25.794Z,25.90
2022-11-19T09:11:55.675Z,25.00
2022-11-19T09:14:23.722Z,20.40
2022-11-19T09:16:51.627Z,22.00
2022-11-19T09:19:19.641Z,24.00
2022-11-19T09:21:47.569Z,24.80
2022-11-19T09:24:15.592Z,22.80
2022-11-19T09:26:45.629Z,21.90
2022-11-19T09:29:16.815Z,27.70
2022-11-19T09:31:44.694Z,28.70
2022-11-19T09:34:13.691Z,31.20
2022-11-19T09:36:41.616Z,46.50
2022-11-19T09:39:11.014Z,36.90
2022-11-19T09:41:55.918Z,31.80
2022-11-19T09:47:31.434Z,26.90
2022-11-19T09:50:24.394Z,19.90
2022-11-19T09:52:58.511Z,32.70
2022-11-19T09:55:38.081Z,29.50
2022-11-19T09:58:20.712Z,30.20
2022-11-19T10:00:48.718Z,25.60
2022-11-19T10:03:27.362Z,24.20
2022-11-19T10:06:15.970Z,24.00
2022-11-19T10:09:21.263Z,24.00
2022-11-19T10:12:14.763Z,21.00
2022-11-19T10:15:01.354Z,23.50
2022-11-19T10:17:57.195Z,25.50
2022-11-19T10:20:45.888Z,24.00
2022-11-19T10:23:19.287Z,24.90
2022-11-19T10:25:50.065Z,24.50
2022-11-19T10:28:23.088Z,23.00
2022-11-19T10:30:55.436Z,24.70
2022-11-19T10:33:29.774Z,26.50
2022-11-19T10:36:03.099Z,28.30
2022-11-19T10:38:40.014Z,27.70
2022-11-19T10:41:18.041Z,30.00
2022-11-19T10:43:52.096Z,29.30
2022-11-19T10:46:24.519Z,27.10
2022-11-19T10:48:56.445Z,28.10
2022-11-19T10:51:28.855Z,32.60
2022-11-19T10:53:57.568Z,34.70
2022-11-19T10:56:45.708Z,31.20
2022-11-19T10:59:19.137Z,31.50
2022-11-19T11:02:28.359Z,28.90
2022-11-19T11:05:04.250Z,29.30
2022-11-19T11:07:52.736Z,29.00
2022-11-19T11:10:29.952Z,29.60
2022-11-19T11:13:38.030Z,29.90
2022-11-19T11:16:13.628Z,25.20
2022-11-19T11:18:41.926Z,24.20
2022-11-19T11:21:36.912Z,26.80
2022-11-19T11:24:06.023Z,25.90
2022-11-19T11:26:34.934Z,25.20
2022-11-19T11:29:11.994Z,23.70
2022-11-19T11:31:42.988Z,24.70
2022-11-19T11:34:26.094Z,23.60
2022-11-19T11:37:02.981Z,22.70
2022-11-19T11:39:36.306Z,23.90
2022-11-19T11:42:07.070Z,22.80
2022-11-19T11:44:38.632Z,29.40
2022-11-19T11:47:19.311Z,29.40
2022-11-19T11:49:55.881Z,28.60
2022-11-19T11:52:52.020Z,19.70
2022-11-19T11:55:22.850Z,19.20
2022-11-19T11:58:02.566Z,26.50
2022-11-19T12:00:30.722Z,20.10
2022-11-19T12:03:09.583Z,18.70
2022-11-19T12:05:46.959Z,20.80
2022-11-19T12:08:26.692Z,21.50
2022-11-19T12:11:08.620Z,21.50
2022-11-19T12:13:42.589Z,23.00
2022-11-19T12:16:56.232Z,22.60
2022-11-19T12:19:36.216Z,23.30
2022-11-19T12:22:18.806Z,23.90
2022-11-19T12:25:14.361Z,25.50
2022-11-19T12:30:24.477Z,23.30
2022-11-19T12:33:04.719Z,25.10
2022-11-19T12:35:41.673Z,21.40
2022-11-19T12:38:12.920Z,20.10
2022-11-19T12:41:10.106Z,20.00
2022-11-19T12:43:46.476Z,21.50
2022-11-19T12:46:14.349Z,22.70
2022-11-19T12:49:23.101Z,21.90
2022-11-19T12:51:58.699Z,22.70
2022-11-19T12:54:53.955Z,24.70
2022-11-19T13:00:01.115Z,22.70
2022-11-19T13:02:35.529Z,23.80
2022-11-19T13:05:14.392Z,24.80
2022-11-19T13:08:05.032Z,25.40
2022-11-19T13:10:45.690Z,25.90
2022-11-19T13:13:19.364Z,24.00
2022-11-19T13:15:59.168Z,25.20
2022-11-19T13:18:45.233Z,27.80
2022-11-19T13:21:38.712Z,25.20
2022-11-19T13:24:39.318Z,26.90
2022-11-19T13:27:18.844Z,29.10
2022-11-19T13:29:58.345Z,27.10
2022-11-19T13:32:46.439Z,26.90
2022-11-19T13:35:46.524Z,28.60
2022-11-19T13:39:15.858Z,29.80
2022-11-19T13:42:08.928Z,30.90
2022-11-19T13:44:41.640Z,31.50
2022-11-19T13:47:27.309Z,36.20
2022-11-19T13:50:17.241Z,35.10
2022-11-19T13:52:57.022Z,14.80
2022-11-19T13:55:41.031Z,30.60
2022-11-19T13:58:40.262Z,29.30
2022-11-19T14:01:08.644Z,29.40
2022-11-19T14:03:55.192Z,27.70
2022-11-19T14:06:31.970Z,31.60
2022-11-19T14:09:22.014Z,30.80
2022-11-19T14:12:24.018Z,31.90
2022-11-19T14:15:29.438Z,37.50
2022-11-19T14:18:25.153Z,31.70
2022-11-19T14:21:14.635Z,30.20
2022-11-19T14:24:11.826Z,27.90
2022-11-19T14:26:39.772Z,33.90
2022-11-19T14:29:34.781Z,29.90
2022-11-19T14:32:03.164Z,29.60
2022-11-19T14:34:33.696Z,30.10
2022-11-19T14:37:18.306Z,30.30
2022-11-19T14:40:17.558Z,32.40
2022-11-19T14:43:30.267Z,32.50
2022-11-19T14:46:28.376Z,34.50
2022-11-19T14:49:35.554Z,35.90
2022-11-19T14:52:22.828Z,34.50
2022-11-19T14:55:19.531Z,40.80
2022-11-19T14:57:58.162Z,42.90
2022-11-19T15:00:40.470Z,43.20
2022-11-19T15:03:24.068Z,41.30
2022-11-19T15:06:05.491Z,35.90
2022-11-19T15:09:02.295Z,38.40
2022-11-19T15:11:56.702Z,31.30
2022-11-19T15:14:39.835Z,36.00
2022-11-19T15:17:10.429Z,33.40
2022-11-19T15:20:07.997Z,40.10
2022-11-19T15:22:52.351Z,41.20
2022-11-19T15:26:03.537Z,39.10
2022-11-19T15:29:06.069Z,42.30
2022-11-19T15:31:57.539Z,49.10
2022-11-19T15:35:23.940Z,49.80
2022-11-19T15:38:02.620Z,49.20
2022-11-19T15:40:36.524Z,46.90
2022-11-19T15:43:04.582Z,48.40
2022-11-19T15:45:39.405Z,50.30
2022-11-19T15:48:38.261Z,50.30
2022-11-19T15:51:10.976Z,53.60
2022-11-19T15:54:01.446Z,53.60
2022-11-19T15:56:35.264Z,53.60
2022-11-19T15:59:11.892Z,71.70
2022-11-19T16:01:44.289Z,93.20
2022-11-19T16:04:18.635Z,96.60
2022-11-19T16:06:51.030Z,75.50
2022-11-19T16:09:25.350Z,63.30
2022-11-19T16:12:14.738Z,57.80
2022-11-19T16:15:08.249Z,64.10
2022-11-19T16:17:46.827Z,70.20
2022-11-19T16:20:20.883Z,68.30
2022-11-19T16:23:13.479Z,77.40
2022-11-19T16:25:42.966Z,77.10
2022-11-19T16:28:14.126Z,80.90
2022-11-19T16:31:04.019Z,96.40
2022-11-19T16:33:34.321Z,114.00
2022-11-19T16:36:17.430Z,136.60
2022-11-19T16:38:50.418Z,164.90
2022-11-19T16:41:44.666Z,130.20
2022-11-19T16:44:18.744Z,136.50
2022-11-19T16:46:48.194Z,121.40
2022-11-19T16:49:40.810Z,125.80
2022-11-19T16:52:55.864Z,134.70
2022-11-19T16:55:23.888Z,146.50
2022-11-19T16:58:18.268Z,138.90
2022-11-19T17:00:52.627Z,136.70
2022-11-19T17:03:23.945Z,120.30
2022-11-19T17:05:53.715Z,119.70
2022-11-19T17:08:29.357Z,103.80
2022-11-19T17:11:38.332Z,109.90
2022-11-19T17:14:35.356Z,97.30
2022-11-19T17:17:04.125Z,78.40
2022-11-19T17:19:35.037Z,80.70
2022-11-19T17:22:36.677Z,76.80
2022-11-19T17:25:05.435Z,76.20
2022-11-19T17:27:38.101Z,93.40
2022-11-19T17:30:19.182Z,96.90
2022-11-19T17:32:52.072Z,100.40
2022-11-19T17:35:49.710Z,79.40
2022-11-19T17:38:21.162Z,75.60
2022-11-19T17:40:58.119Z,70.20
2022-11-19T17:43:50.426Z,78.60
2022-11-19T17:46:19.265Z,81.10
2022-11-19T17:48:49.359Z,75.70
2022-11-19T17:51:19.589Z,66.50
2022-11-19T17:53:49.377Z,68.60
2022-11-19T17:56:19.140Z,70.80
2022-11-19T17:58:47.746Z,78.10
2022-11-19T18:01:16.841Z,66.10
2022-11-19T18:03:45.262Z,57.80
2022-11-19T18:06:15.804Z,62.10
2022-11-19T18:08:45.243Z,62.30
2022-11-19T18:11:16.722Z,67.00
2022-11-19T18:13:46.590Z,68.70
2022-11-19T18:16:23.188Z,71.30
2022-11-19T18:18:51.341Z,71.80
2022-11-19T18:21:21.825Z,68.80
2022-11-19T18:23:51.687Z,72.10
2022-11-19T18:26:22.484Z,73.60
2022-11-19T18:28:50.990Z,68.10
2022-11-19T18:31:24.406Z,65.70
2022-11-19T18:33:52.684Z,64.10
2022-11-19T18:36:20.886Z,63.50
2022-11-19T18:38:48.925Z,62.00
2022-11-19T18:41:20.319Z,67.00
2022-11-19T18:44:06.904Z,68.60
2022-11-19T18:46:34.959Z,78.80
2022-11-19T18:49:02.913Z,71.80
2022-11-19T18:51:31.495Z,70.30
2022-11-19T18:53:59.720Z,66.80
2022-11-19T18:56:27.766Z,62.30
2022-11-19T18:58:58.147Z,65.50
2022-11-19T19:01:31.020Z,67.70
2022-11-19T19:03:59.023Z,75.10
2022-11-19T19:06:26.941Z,79.70
2022-11-19T19:08:55.151Z,80.80
2022-11-19T19:11:41.540Z,81.70
2022-11-19T19:14:09.563Z,73.30
2022-11-19T19:16:37.494Z,73.50
2022-11-19T19:19:05.486Z,74.40
2022-11-19T19:21:33.397Z,82.10
2022-11-19T19:24:01.368Z,87.80
2022-11-19T19:26:29.336Z,80.10
2022-11-19T19:28:57.648Z,81.10
2022-11-19T19:31:25.876Z,83.60
2022-11-19T19:33:53.854Z,91.00
2022-11-19T19:36:26.838Z,84.60
2022-11-19T19:38:55.383Z,85.00
2022-11-19T19:41:25.932Z,80.40
2022-11-19T19:43:55.673Z,77.60
2022-11-19T19:46:24.339Z,76.50
2022-11-19T19:48:53.798Z,74.90
2022-11-19T19:51:24.398Z,72.90
2022-11-19T19:53:53.545Z,73.60
2022-11-19T19:56:29.887Z,74.60
2022-11-19T19:59:00.538Z,67.30
2022-11-19T20:01:34.137Z,64.90
2022-11-19T20:04:11.698Z,66.80
2022-11-19T20:06:45.094Z,71.00
2022-11-19T20:09:13.913Z,71.90
2022-11-19T20:11:47.394Z,75.90
2022-11-19T20:14:22.179Z,74.40
2022-11-19T20:19:34.589Z,79.10
2022-11-19T20:22:02.584Z,78.90
2022-11-19T20:24:30.580Z,78.80
2022-11-19T20:26:58.728Z,75.80
2022-11-19T20:29:33.206Z,76.30
2022-11-19T20:34:34.548Z,83.40
2022-11-19T20:37:02.554Z,78.70
2022-11-19T20:39:30.573Z,80.00
2022-11-19T20:42:16.746Z,84.90
2022-11-19T20:44:45.583Z,99.80
2022-11-19T20:47:14.052Z,85.00
2022-11-19T20:49:47.679Z,77.00
2022-11-19T20:52:19.189Z,71.10
2022-11-19T20:54:53.351Z,74.00
2022-11-19T20:57:21.394Z,78.40
2022-11-19T20:59:54.344Z,82.60
2022-11-19T21:02:29.286Z,85.80
2022-11-19T21:04:58.020Z,91.60
2022-11-19T21:07:32.494Z,87.00
2022-11-19T21:10:10.828Z,74.80
2022-11-19T21:13:01.360Z,75.80
2022-11-19T21:15:36.011Z,70.60
2022-11-19T21:18:11.844Z,69.10
2022-11-19T21:20:39.951Z,70.60
2022-11-19T21:23:08.042Z,81.70
2022-11-19T21:26:01.466Z,88.10
2022-11-19T21:28:36.277Z,96.00
2022-11-19T21:31:09.866Z,114.20
2022-11-19T21:33:44.756Z,96.40
2022-11-19T21:36:32.078Z,97.50
2022-11-19T21:39:06.133Z,94.80
2022-11-19T21:41:40.899Z,92.20
2022-11-19T21:44:22.008Z,88.10
2022-11-19T21:46:51.388Z,99.60
2022-11-19T21:49:24.954Z,110.30
2022-11-19T21:52:02.420Z,114.00
2022-11-19T21:54:36.835Z,127.50
2022-11-19T21:59:43.476Z,110.10
2022-11-19T22:02:19.029Z,103.50
2022-11-19T22:04:54.985Z,106.60
2022-11-19T22:07:27.659Z,95.20
2022-11-19T22:10:00.500Z,100.30
2022-11-19T22:12:33.196Z,113.80
2022-11-19T22:15:07.076Z,106.90
2022-11-19T22:17:40.384Z,99.70
2022-11-19T22:20:18.096Z,97.60
2022-11-19T22:22:46.678Z,98.50
2022-11-19T22:25:14.735Z,100.60
2022-11-19T22:27:47.423Z,104.00
2022-11-19T22:30:20.155Z,99.70
2022-11-19T22:32:53.536Z,87.30
2022-11-19T22:35:27.507Z,77.50
2022-11-19T22:38:01.609Z,69.10
2022-11-19T22:40:35.059Z,67.90
2022-11-19T22:43:10.534Z,70.80
2022-11-19T22:45:46.075Z,72.70
2022-11-19T22:48:20.716Z,75.50
2022-11-19T22:50:54.301Z,77.90
2022-11-19T22:53:26.927Z,81.00
2022-11-19T22:56:01.672Z,80.40
2022-11-19T22:58:36.975Z,80.30
2022-11-19T23:01:22.474Z,76.30
2022-11-19T23:03:57.902Z,78.50
2022-11-19T23:06:44.066Z,71.20
2022-11-19T23:09:17.696Z,74.40
2022-11-19T23:12:13.934Z,81.10
2022-11-19T23:14:48.420Z,80.60
2022-11-19T23:20:04.433Z,90.10
2022-11-19T23:22:32.852Z,91.80
2022-11-19T23:25:14.170Z,94.40
2022-11-19T23:27:45.433Z,86.50
2022-11-19T23:30:19.071Z,78.50
2022-11-19T23:32:52.583Z,75.70
2022-11-19T23:35:20.499Z,94.50
2022-11-19T23:37:54.687Z,87.60
2022-11-19T23:40:30.845Z,81.50
2022-11-19T23:42:58.818Z,89.70
2022-11-19T23:45:36.669Z,94.10
2022-11-19T23:48:04.952Z,86.70
2022-11-19T23:50:33.787Z,76.10
2022-11-19T23:53:01.715Z,74.30
2022-11-19T23:55:29.681Z,78.10
2022-11-19T23:57:57.645Z,80.10
